Time;durP1;ratioP1;P1;durP2;ratioP2;P2;SDS_P1;SDS_P2;PMS_P1;PMS_P2;Temp;Humidity;BMP_temperature;BMP_pressure;BME280_temperature;BME280_humidity;BME280_pressure;Samples;Min_cycle;Max_cycle;Signal;HPM_P1;HPM_P2
2023/12/05 00:00:49;;;;;;;18.35;14.75;;;;;;;;;;5093005;28;20071;-78
2023/12/05 00:03:15;;;;;;;20.88;15.60;;;;;;;;;;5093074;28;20044;-78
2023/12/05 00:05:41;;;;;;;20.05;15.73;;;;;;;;;;5093386;28;20043;-78
2023/12/05 00:08:07;;;;;;;18.33;13.45;;;;;;;;;;5076419;28;20143;-79
2023/12/05 00:10:33;;;;;;;18.92;14.80;;;;;;;;;;5094233;28;20048;-79
2023/12/05 00:13:03;;;;;;;17.08;14.02;;;;;;;;;;5092946;28;20525;-79
2023/12/05 00:15:29;;;;;;;17.92;15.13;;;;;;;;;;5093229;28;20093;-79
2023/12/05 00:17:55;;;;;;;18.55;13.20;;;;;;;;;;5094035;28;20047;-79
2023/12/05 00:20:21;;;;;;;18.30;14.98;;;;;;;;;;5092800;28;20044;-79
2023/12/05 00:22:47;;;;;;;18.92;15.93;;;;;;;;;;5075739;28;20373;-79
2023/12/05 00:25:13;;;;;;;20.38;15.52;;;;;;;;;;5093080;28;20412;-79
2023/12/05 00:27:39;;;;;;;15.98;13.80;;;;;;;;;;5076351;28;20139;-79
2023/12/05 00:30:06;;;;;;;17.35;13.60;;;;;;;;;;5093814;28;20047;-79
2023/12/05 00:32:32;;;;;;;18.08;15.07;;;;;;;;;;5092540;28;20135;-79
2023/12/05 00:34:58;;;;;;;18.48;13.23;;;;;;;;;;5092956;28;20052;-79
2023/12/05 00:37:24;;;;;;;20.70;16.33;;;;;;;;;;5092729;28;20040;-79
2023/12/05 00:39:50;;;;;;;19.60;16.00;;;;;;;;;;5092916;28;20048;-79
2023/12/05 00:42:16;;;;;;;19.75;16.58;;;;;;;;;;5092376;28;20055;-78
2023/12/05 00:44:42;;;;;;;20.48;15.88;;;;;;;;;;5092672;28;20044;-79
2023/12/05 00:47:08;;;;;;;20.23;16.50;;;;;;;;;;5092812;28;20388;-79
2023/12/05 00:49:34;;;;;;;21.30;16.65;;;;;;;;;;5092032;28;20044;-79
2023/12/05 00:52:01;;;;;;;20.77;16.45;;;;;;;;;;5091289;28;20093;-79
2023/12/05 00:54:27;;;;;;;19.33;14.77;;;;;;;;;;5093468;28;20126;-79
2023/12/05 00:56:54;;;;;;;22.45;17.33;;;;;;;;;;5075992;28;20048;-79
2023/12/05 00:59:20;;;;;;;20.67;16.58;;;;;;;;;;5093137;28;20140;-79
2023/12/05 01:01:47;;;;;;;19.48;16.42;;;;;;;;;;5092444;28;20080;-79
2023/12/05 01:04:13;;;;;;;22.58;17.77;;;;;;;;;;5092417;28;20054;-79
2023/12/05 01:06:39;;;;;;;21.80;17.33;;;;;;;;;;5093577;28;20044;-79
2023/12/05 01:09:10;;;;;;;20.02;17.15;;;;;;;;;;5092615;28;20058;-79
2023/12/05 01:11:36;;;;;;;21.80;16.33;;;;;;;;;;5092623;28;20094;-79
2023/12/05 01:14:03;;;;;;;20.17;16.50;;;;;;;;;;5092389;28;20128;-79
2023/12/05 01:16:29;;;;;;;22.60;17.85;;;;;;;;;;5092537;28;20036;-79
2023/12/05 01:18:55;;;;;;;20.33;17.33;;;;;;;;;;5092425;28;20048;-79
2023/12/05 01:21:21;;;;;;;20.05;16.75;;;;;;;;;;5075423;28;20040;-80
2023/12/05 01:23:47;;;;;;;22.50;17.25;;;;;;;;;;5091956;28;20048;-80
2023/12/05 01:26:13;;;;;;;22.00;17.67;;;;;;;;;;5092513;28;20097;-79
2023/12/05 01:28:39;;;;;;;19.88;17.05;;;;;;;;;;5092297;28;20507;-80
2023/12/05 01:31:05;;;;;;;20.70;16.83;;;;;;;;;;5092525;28;20458;-79
2023/12/05 01:33:31;;;;;;;18.85;14.85;;;;;;;;;;5093039;28;20557;-79
2023/12/05 01:35:57;;;;;;;20.00;16.73;;;;;;;;;;5092385;28;20395;-80
2023/12/05 01:38:23;;;;;;;19.85;16.35;;;;;;;;;;5093166;28;20075;-79
2023/12/05 01:40:49;;;;;;;17.77;15.45;;;;;;;;;;5095553;28;20052;-79
2023/12/05 01:43:16;;;;;;;19.60;15.65;;;;;;;;;;5095781;28;20090;-79
2023/12/05 01:45:42;;;;;;;22.38;17.50;;;;;;;;;;5095762;28;20109;-80
2023/12/05 01:48:10;;;;;;;21.02;17.38;;;;;;;;;;5113856;28;20044;-80
2023/12/05 01:50:36;;;;;;;20.40;15.90;;;;;;;;;;5117326;28;20077;-80
2023/12/05 01:53:04;;;;;;;21.90;16.85;;;;;;;;;;5098796;28;20067;-80
2023/12/05 01:55:31;;;;;;;22.25;17.23;;;;;;;;;;5098776;28;20103;-79
2023/12/05 01:57:58;;;;;;;20.33;17.50;;;;;;;;;;5099205;28;20109;-80
2023/12/05 02:00:25;;;;;;;20.40;16.20;;;;;;;;;;5098941;28;20568;-79
2023/12/05 02:02:51;;;;;;;20.20;17.20;;;;;;;;;;5099072;28;20070;-80
2023/12/05 02:05:17;;;;;;;21.55;17.65;;;;;;;;;;5098589;28;20039;-79
2023/12/05 02:07:44;;;;;;;22.33;18.02;;;;;;;;;;5099038;28;20044;-79
2023/12/05 02:10:10;;;;;;;20.67;17.13;;;;;;;;;;5098937;28;20091;-80
2023/12/05 02:12:40;;;;;;;21.02;17.45;;;;;;;;;;5116714;28;20043;-80
2023/12/05 02:15:07;;;;;;;20.27;16.70;;;;;;;;;;5098616;28;20055;-80
2023/12/05 02:17:42;;;;;;;22.02;17.52;;;;;;;;;;5098692;28;20078;-79
2023/12/05 02:20:20;;;;;;;24.15;17.63;;;;;;;;;;5116793;28;20109;-80
2023/12/05 02:22:49;;;;;;;21.50;16.83;;;;;;;;;;5098039;28;20043;-80
2023/12/05 02:25:27;;;;;;;20.85;17.73;;;;;;;;;;5098548;28;20430;-79
2023/12/05 02:27:54;;;;;;;20.50;17.15;;;;;;;;;;5098576;28;20126;-80
2023/12/05 02:30:20;;;;;;;20.02;17.88;;;;;;;;;;5098703;28;20392;-79
2023/12/05 02:32:46;;;;;;;22.27;17.33;;;;;;;;;;5098574;28;20466;-79
2023/12/05 02:35:13;;;;;;;22.45;17.58;;;;;;;;;;5098687;28;20445;-79
2023/12/05 02:38:09;;;;;;;21.33;17.42;;;;;;;;;;5081695;28;20105;-80
2023/12/05 02:40:55;;;;;;;20.00;17.42;;;;;;;;;;5094751;28;20052;-79
2023/12/05 02:43:25;;;;;;;19.27;15.82;;;;;;;;;;5080842;28;20061;-80
2023/12/05 02:45:53;;;;;;;21.77;18.23;;;;;;;;;;5098506;28;20108;-80
2023/12/05 02:48:20;;;;;;;22.00;18.65;;;;;;;;;;5098355;28;20446;-80
2023/12/05 02:50:46;;;;;;;21.92;18.30;;;;;;;;;;5098033;28;20044;-80
2023/12/05 02:53:13;;;;;;;24.90;20.05;;;;;;;;;;5097601;28;20089;-80
2023/12/05 02:55:39;;;;;;;20.58;18.42;;;;;;;;;;5097808;28;20044;-80
2023/12/05 02:58:05;;;;;;;21.40;18.92;;;;;;;;;;5115822;28;20127;-80
2023/12/05 03:00:31;;;;;;;22.33;19.35;;;;;;;;;;5115800;28;20040;-80
2023/12/05 03:02:57;;;;;;;22.38;18.30;;;;;;;;;;5080873;28;20052;-79
2023/12/05 03:05:23;;;;;;;19.70;15.32;;;;;;;;;;5097463;28;20044;-80
2023/12/05 03:07:49;;;;;;;22.90;19.02;;;;;;;;;;5097612;28;20035;-80
2023/12/05 03:10:15;;;;;;;22.05;18.35;;;;;;;;;;5097515;28;20078;-80
2023/12/05 03:12:41;;;;;;;20.75;17.98;;;;;;;;;;5115690;28;20040;-79
2023/12/05 03:15:08;;;;;;;22.45;18.98;;;;;;;;;;5097979;28;20056;-79
2023/12/05 03:17:34;;;;;;;23.15;19.27;;;;;;;;;;5097363;28;20051;-80
2023/12/05 03:20:00;;;;;;;22.17;18.60;;;;;;;;;;5080625;28;20087;-80
2023/12/05 03:22:26;;;;;;;20.40;18.13;;;;;;;;;;5096528;28;20043;-80
2023/12/05 03:24:52;;;;;;;20.95;17.42;;;;;;;;;;5097740;28;20043;-80
2023/12/05 03:27:18;;;;;;;20.88;18.00;;;;;;;;;;5097506;28;20047;-80
2023/12/05 03:29:44;;;;;;;23.83;19.50;;;;;;;;;;5097675;28;20039;-80
2023/12/05 03:32:10;;;;;;;19.80;15.82;;;;;;;;;;5097096;28;20043;-79
2023/12/05 03:34:36;;;;;;;21.83;18.73;;;;;;;;;;5097356;28;20043;-79
2023/12/05 03:37:02;;;;;;;21.98;18.85;;;;;;;;;;5097277;28;20059;-79
2023/12/05 03:39:28;;;;;;;23.60;19.27;;;;;;;;;;5080375;28;20044;-80
2023/12/05 03:41:54;;;;;;;22.25;17.80;;;;;;;;;;5079965;28;20055;-79
2023/12/05 03:44:20;;;;;;;22.33;18.60;;;;;;;;;;5097180;28;20086;-80
2023/12/05 03:46:47;;;;;;;22.88;18.45;;;;;;;;;;5096668;28;20096;-80
2023/12/05 03:49:13;;;;;;;21.73;18.83;;;;;;;;;;5097345;28;20107;-79
2023/12/05 03:51:39;;;;;;;20.67;17.80;;;;;;;;;;5080189;28;20043;-80
2023/12/05 03:54:05;;;;;;;21.83;18.92;;;;;;;;;;5114362;28;20185;-79
2023/12/05 03:56:31;;;;;;;21.45;18.77;;;;;;;;;;5096747;28;20043;-80
2023/12/05 03:58:57;;;;;;;21.42;16.65;;;;;;;;;;5114802;28;20079;-80
2023/12/05 04:01:23;;;;;;;24.75;20.88;;;;;;;;;;5097140;28;20051;-79
2023/12/05 04:03:49;;;;;;;23.67;19.75;;;;;;;;;;5096644;28;20049;-80
2023/12/05 04:06:19;;;;;;;24.05;18.90;;;;;;;;;;5096753;28;20471;-80
2023/12/05 04:08:45;;;;;;;24.35;19.73;;;;;;;;;;5096825;28;20097;-80
2023/12/05 04:11:12;;;;;;;22.42;19.23;;;;;;;;;;5114219;28;20040;-79
2023/12/05 04:13:38;;;;;;;24.05;19.90;;;;;;;;;;5114347;28;20043;-80
2023/12/05 04:16:04;;;;;;;23.75;20.15;;;;;;;;;;5114565;28;20044;-79
2023/12/05 04:18:30;;;;;;;22.80;18.85;;;;;;;;;;5079850;28;20047;-80
2023/12/05 04:20:56;;;;;;;25.30;20.10;;;;;;;;;;5096316;28;20039;-79
2023/12/05 04:23:22;;;;;;;25.95;20.77;;;;;;;;;;5113415;28;20503;-80
2023/12/05 04:25:48;;;;;;;24.20;19.30;;;;;;;;;;5096481;28;20391;-80
2023/12/05 04:28:14;;;;;;;25.95;21.02;;;;;;;;;;5079664;28;20085;-80
2023/12/05 04:30:41;;;;;;;25.42;20.80;;;;;;;;;;5096275;28;20069;-80
2023/12/05 04:33:07;;;;;;;26.38;21.20;;;;;;;;;;5096303;28;20516;-80
2023/12/05 04:35:33;;;;;;;24.75;20.25;;;;;;;;;;5096262;28;20087;-79
2023/12/05 04:37:59;;;;;;;24.48;20.98;;;;;;;;;;5096334;28;20492;-79
2023/12/05 04:40:25;;;;;;;27.05;21.42;;;;;;;;;;5079295;28;20051;-80
2023/12/05 04:42:51;;;;;;;24.60;20.55;;;;;;;;;;5114339;28;20101;-80
2023/12/05 04:45:17;;;;;;;28.08;21.90;;;;;;;;;;5096239;28;20091;-79
2023/12/05 04:47:43;;;;;;;25.15;20.60;;;;;;;;;;5096252;28;20050;-79
2023/12/05 04:50:10;;;;;;;26.75;21.52;;;;;;;;;;5112951;28;20131;-80
2023/12/05 04:52:36;;;;;;;26.55;21.42;;;;;;;;;;5095057;28;20097;-80
2023/12/05 04:55:02;;;;;;;24.17;19.45;;;;;;;;;;5095033;28;20048;-79
2023/12/05 04:57:28;;;;;;;27.30;22.20;;;;;;;;;;5095119;28;20433;-80
2023/12/05 04:59:54;;;;;;;27.77;21.85;;;;;;;;;;5096114;28;20142;-79
2023/12/05 05:02:20;;;;;;;26.70;21.80;;;;;;;;;;5095911;28;20043;-80
2023/12/05 05:04:46;;;;;;;29.83;23.40;;;;;;;;;;5079292;28;20058;-79
2023/12/05 05:07:12;;;;;;;19.88;15.57;;;;;;;;;;5095937;28;20093;-80
2023/12/05 05:09:40;;;;;;;27.52;22.08;;;;;;;;;;5079192;28;20051;-80
2023/12/05 05:12:09;;;;;;;28.30;21.75;;;;;;;;;;5096042;28;20047;-79
2023/12/05 05:14:36;;;;;;;28.20;22.23;;;;;;;;;;5096026;28;20043;-80
2023/12/05 05:17:03;;;;;;;28.00;22.20;;;;;;;;;;5095527;28;20484;-80
2023/12/05 05:19:29;;;;;;;28.92;23.48;;;;;;;;;;5113853;28;20051;-80
2023/12/05 05:21:56;;;;;;;27.70;21.73;;;;;;;;;;5078431;28;20122;-80
2023/12/05 05:24:22;;;;;;;27.40;23.33;;;;;;;;;;5081053;28;20125;-80
2023/12/05 05:26:48;;;;;;;28.95;22.42;;;;;;;;;;5099808;28;20047;-80
2023/12/05 05:29:14;;;;;;;31.70;24.00;;;;;;;;;;5082716;28;20590;-80
2023/12/05 05:31:40;;;;;;;29.80;24.02;;;;;;;;;;5099492;28;20403;-79
2023/12/05 05:34:06;;;;;;;29.90;25.15;;;;;;;;;;5099595;28;20485;-80
2023/12/05 05:36:32;;;;;;;31.38;24.70;;;;;;;;;;5100329;28;20383;-80
2023/12/05 05:38:58;;;;;;;32.30;25.88;;;;;;;;;;5083030;28;20054;-80
2023/12/05 05:41:24;;;;;;;30.13;22.98;;;;;;;;;;5099104;28;20051;-79
2023/12/05 05:43:50;;;;;;;32.22;25.83;;;;;;;;;;5099448;28;20475;-80
2023/12/05 05:46:16;;;;;;;27.77;21.73;;;;;;;;;;5099210;28;20511;-80
2023/12/05 05:48:43;;;;;;;34.78;26.48;;;;;;;;;;5099457;28;20496;-79
2023/12/05 05:51:09;;;;;;;34.85;27.33;;;;;;;;;;5098922;28;20040;-79
2023/12/05 05:53:35;;;;;;;32.92;25.90;;;;;;;;;;5098763;28;20075;-79
2023/12/05 05:56:02;;;;;;;33.55;25.42;;;;;;;;;;5082301;28;20044;-79
2023/12/05 05:58:28;;;;;;;35.90;28.27;;;;;;;;;;5099153;28;20047;-79
2023/12/05 06:00:54;;;;;;;30.67;25.67;;;;;;;;;;5099096;28;20186;-80
2023/12/05 06:03:20;;;;;;;37.20;28.77;;;;;;;;;;5081818;28;20058;-80
2023/12/05 06:05:46;;;;;;;32.40;26.70;;;;;;;;;;5099358;28;20108;-79
2023/12/05 06:08:12;;;;;;;35.97;26.70;;;;;;;;;;5082125;28;20051;-80
2023/12/05 06:10:38;;;;;;;36.05;28.52;;;;;;;;;;5098792;28;20135;-80
2023/12/05 06:13:04;;;;;;;34.03;26.13;;;;;;;;;;5066004;28;20052;-80
2023/12/05 06:15:30;;;;;;;33.60;26.95;;;;;;;;;;5082214;28;20055;-80
2023/12/05 06:17:57;;;;;;;34.88;28.40;;;;;;;;;;5098906;28;20047;-80
2023/12/05 06:20:23;;;;;;;36.90;29.60;;;;;;;;;;5116729;28;20077;-79
2023/12/05 06:22:49;;;;;;;36.42;28.13;;;;;;;;;;5097369;28;20044;-80
2023/12/05 06:25:16;;;;;;;36.72;28.17;;;;;;;;;;5098680;28;20094;-80
2023/12/05 06:27:42;;;;;;;42.83;31.42;;;;;;;;;;5098631;28;20130;-80
2023/12/05 06:30:08;;;;;;;36.33;25.48;;;;;;;;;;5098555;28;20058;-79
2023/12/05 06:32:34;;;;;;;38.55;28.20;;;;;;;;;;5098755;28;20070;-79
2023/12/05 06:35:00;;;;;;;36.03;27.70;;;;;;;;;;5098139;28;20079;-79
2023/12/05 06:37:27;;;;;;;35.22;28.40;;;;;;;;;;5064921;28;20040;-80
2023/12/05 06:39:53;;;;;;;36.90;27.48;;;;;;;;;;5098090;28;20089;-80
2023/12/05 06:42:19;;;;;;;38.20;28.05;;;;;;;;;;5097181;28;20518;-80
2023/12/05 06:44:45;;;;;;;32.35;23.75;;;;;;;;;;5080864;28;20035;-80
2023/12/05 06:47:11;;;;;;;38.88;29.85;;;;;;;;;;5097644;28;20044;-80
2023/12/05 06:49:38;;;;;;;39.05;27.88;;;;;;;;;;5097628;28;20059;-80
2023/12/05 06:52:05;;;;;;;39.80;28.70;;;;;;;;;;5097584;28;20543;-80
2023/12/05 06:54:31;;;;;;;35.22;23.98;;;;;;;;;;5080874;28;20050;-80
2023/12/05 06:56:57;;;;;;;37.95;29.52;;;;;;;;;;5098036;28;20056;-79
2023/12/05 06:59:23;;;;;;;39.78;29.45;;;;;;;;;;5116049;28;20044;-80
2023/12/05 07:01:49;;;;;;;39.50;28.60;;;;;;;;;;5116064;28;20368;-80
2023/12/05 07:04:15;;;;;;;39.03;29.20;;;;;;;;;;5098185;28;20043;-79
2023/12/05 07:06:41;;;;;;;39.20;30.05;;;;;;;;;;5064689;28;20107;-80
2023/12/05 07:09:07;;;;;;;42.03;28.98;;;;;;;;;;5097960;28;20098;-79
2023/12/05 07:11:33;;;;;;;39.00;30.77;;;;;;;;;;5097733;28;20088;-79
2023/12/05 07:14:00;;;;;;;42.33;29.75;;;;;;;;;;5097899;28;20066;-79
2023/12/05 07:16:26;;;;;;;40.17;29.55;;;;;;;;;;5080989;28;20160;-79
2023/12/05 07:18:52;;;;;;;35.92;26.92;;;;;;;;;;5115696;28;20373;-79
2023/12/05 07:21:18;;;;;;;36.60;27.00;;;;;;;;;;5097121;28;20043;-79
2023/12/05 07:23:44;;;;;;;37.72;29.83;;;;;;;;;;5114944;28;20057;-79
2023/12/05 07:26:10;;;;;;;37.22;29.13;;;;;;;;;;5097532;28;20128;-79
2023/12/05 07:28:36;;;;;;;33.85;25.27;;;;;;;;;;5115394;28;20044;-79
2023/12/05 07:31:02;;;;;;;40.28;29.17;;;;;;;;;;5097564;28;20422;-79
2023/12/05 07:33:28;;;;;;;37.30;28.05;;;;;;;;;;5097458;28;20051;-79
2023/12/05 07:35:54;;;;;;;40.33;29.52;;;;;;;;;;5080525;28;20052;-79
2023/12/05 07:38:20;;;;;;;42.70;30.98;;;;;;;;;;5097605;28;20548;-79
2023/12/05 07:40:46;;;;;;;39.08;28.58;;;;;;;;;;5114859;28;20135;-78
2023/12/05 07:43:13;;;;;;;39.10;29.83;;;;;;;;;;5097002;28;20063;-79
2023/12/05 07:45:39;;;;;;;40.40;29.13;;;;;;;;;;5096930;28;20047;-78
2023/12/05 07:48:05;;;;;;;42.40;30.67;;;;;;;;;;5096316;28;20047;-79
2023/12/05 07:50:31;;;;;;;40.38;31.05;;;;;;;;;;5096594;28;20062;-79
2023/12/05 07:52:57;;;;;;;41.00;28.17;;;;;;;;;;5095977;28;20135;-79
2023/12/05 07:55:23;;;;;;;44.53;30.23;;;;;;;;;;5096663;28;20483;-79
2023/12/05 07:57:50;;;;;;;36.70;26.20;;;;;;;;;;5096957;28;20104;-79
2023/12/05 08:00:17;;;;;;;37.47;27.00;;;;;;;;;;5097208;28;20364;-78
2023/12/05 08:02:46;;;;;;;40.05;30.83;;;;;;;;;;5114711;28;20040;-79
2023/12/05 08:05:12;;;;;;;44.47;31.20;;;;;;;;;;5114407;28;20510;-79
2023/12/05 08:07:39;;;;;;;38.10;28.80;;;;;;;;;;5096752;28;20104;-79
2023/12/05 08:10:06;;;;;;;37.28;28.10;;;;;;;;;;5096712;28;20058;-79
2023/12/05 08:12:33;;;;;;;36.97;28.65;;;;;;;;;;5096690;28;20403;-79
2023/12/05 08:14:59;;;;;;;38.92;29.40;;;;;;;;;;5096690;28;20043;-79
2023/12/05 08:17:25;;;;;;;35.85;25.95;;;;;;;;;;5096658;28;20109;-79
2023/12/05 08:19:51;;;;;;;35.90;26.63;;;;;;;;;;5114528;28;20047;-79
2023/12/05 08:22:17;;;;;;;36.92;28.52;;;;;;;;;;5114012;28;20044;-79
2023/12/05 08:24:43;;;;;;;37.40;28.30;;;;;;;;;;5079628;28;20052;-79
2023/12/05 08:27:09;;;;;;;39.17;30.33;;;;;;;;;;5114346;28;20050;-79
2023/12/05 08:29:35;;;;;;;36.72;26.70;;;;;;;;;;5114431;28;20055;-79
2023/12/05 08:32:02;;;;;;;40.22;29.05;;;;;;;;;;5096430;28;20479;-79
2023/12/05 08:34:28;;;;;;;39.80;28.92;;;;;;;;;;5114325;28;20051;-79
2023/12/05 08:36:54;;;;;;;37.30;26.20;;;;;;;;;;5096375;28;20044;-78
2023/12/05 08:39:20;;;;;;;37.40;28.27;;;;;;;;;;5096058;28;20108;-79
2023/12/05 08:41:47;;;;;;;37.28;28.45;;;;;;;;;;5095880;28;20534;-78
2023/12/05 08:44:13;;;;;;;39.70;29.42;;;;;;;;;;5114174;28;20101;-79
2023/12/05 08:46:39;;;;;;;38.15;28.27;;;;;;;;;;5096224;28;20048;-79
2023/12/05 08:49:05;;;;;;;37.42;28.52;;;;;;;;;;5096223;28;20040;-79
2023/12/05 08:51:31;;;;;;;38.00;28.75;;;;;;;;;;5079420;28;20039;-79
2023/12/05 08:53:57;;;;;;;41.45;30.75;;;;;;;;;;5095813;28;20138;-79
2023/12/05 08:56:23;;;;;;;36.47;26.98;;;;;;;;;;5079674;28;20096;-79
2023/12/05 08:58:49;;;;;;;40.13;28.52;;;;;;;;;;5117538;28;20047;-78
2023/12/05 09:01:15;;;;;;;36.80;27.90;;;;;;;;;;5083405;28;20047;-78
2023/12/05 09:03:41;;;;;;;36.80;28.50;;;;;;;;;;5100484;28;20075;-79
2023/12/05 09:06:07;;;;;;;36.58;25.92;;;;;;;;;;5099978;28;20050;-79
2023/12/05 09:08:33;;;;;;;40.00;29.83;;;;;;;;;;5118243;28;20047;-79
2023/12/05 09:11:00;;;;;;;37.08;27.90;;;;;;;;;;5066788;28;20087;-79
2023/12/05 09:13:26;;;;;;;37.95;29.17;;;;;;;;;;5083303;28;20376;-79
2023/12/05 09:15:52;;;;;;;36.35;26.83;;;;;;;;;;5083175;28;20051;-79
2023/12/05 09:18:18;;;;;;;35.00;25.63;;;;;;;;;;5099985;28;20044;-79
2023/12/05 09:20:44;;;;;;;40.25;29.20;;;;;;;;;;5099531;28;20209;-79
2023/12/05 09:23:11;;;;;;;35.30;27.30;;;;;;;;;;5082637;28;20048;-79
2023/12/05 09:25:37;;;;;;;37.00;28.63;;;;;;;;;;5083702;28;20371;-79
2023/12/05 09:28:03;;;;;;;42.22;29.42;;;;;;;;;;5099860;28;20054;-79
2023/12/05 09:30:29;;;;;;;38.10;28.75;;;;;;;;;;5099416;28;20145;-79
2023/12/05 09:32:55;;;;;;;38.42;29.40;;;;;;;;;;5099529;28;20059;-79
2023/12/05 09:35:21;;;;;;;37.13;27.88;;;;;;;;;;5117531;28;20040;-79
2023/12/05 09:37:47;;;;;;;39.05;28.55;;;;;;;;;;5093980;28;20067;-79
2023/12/05 09:40:14;;;;;;;38.63;28.58;;;;;;;;;;5114476;28;20046;-79
2023/12/05 09:42:44;;;;;;;35.80;27.05;;;;;;;;;;5077830;28;20109;-79
2023/12/05 09:45:14;;;;;;;41.67;29.10;;;;;;;;;;5095417;28;20040;-79
2023/12/05 09:47:43;;;;;;;36.70;27.60;;;;;;;;;;5096263;28;20040;-79
2023/12/05 09:50:10;;;;;;;41.45;29.70;;;;;;;;;;5096218;28;20088;-79
2023/12/05 09:52:36;;;;;;;40.58;29.55;;;;;;;;;;5094933;28;20058;-79
2023/12/05 09:55:02;;;;;;;37.97;27.92;;;;;;;;;;5095237;28;20040;-79
2023/12/05 09:57:29;;;;;;;38.50;24.65;;;;;;;;;;5095220;28;20044;-79
2023/12/05 09:59:55;;;;;;;39.55;28.30;;;;;;;;;;5095231;28;20491;-79
2023/12/05 10:02:23;;;;;;;38.85;29.38;;;;;;;;;;5095343;28;20545;-79
2023/12/05 10:04:50;;;;;;;41.03;29.63;;;;;;;;;;5094976;28;20047;-80
2023/12/05 10:07:16;;;;;;;40.83;28.48;;;;;;;;;;5094933;28;20072;-79
2023/12/05 10:09:43;;;;;;;40.53;29.27;;;;;;;;;;5094142;28;20543;-80
2023/12/05 10:12:10;;;;;;;43.88;31.02;;;;;;;;;;5095893;28;20441;-80
2023/12/05 10:14:40;;;;;;;41.35;30.30;;;;;;;;;;5094692;28;20072;-79
2023/12/05 10:17:07;;;;;;;39.53;26.40;;;;;;;;;;5096161;28;20048;-79
2023/12/05 10:19:34;;;;;;;42.13;28.98;;;;;;;;;;5094642;28;20479;-80
2023/12/05 10:22:00;;;;;;;42.40;30.98;;;;;;;;;;5094430;28;20044;-79
2023/12/05 10:24:38;;;;;;;42.53;29.92;;;;;;;;;;5077382;28;20044;-79
2023/12/05 10:27:04;;;;;;;38.67;25.90;;;;;;;;;;5092290;28;20052;-80
2023/12/05 10:29:40;;;;;;;43.13;31.23;;;;;;;;;;5094448;28;20077;-80
2023/12/05 10:32:10;;;;;;;41.03;28.27;;;;;;;;;;5091786;28;20044;-79
2023/12/05 10:34:49;;;;;;;42.45;30.48;;;;;;;;;;5093969;28;20044;-80
2023/12/05 10:37:20;;;;;;;45.25;29.77;;;;;;;;;;5077264;28;20071;-79
2023/12/05 10:39:48;;;;;;;43.03;29.92;;;;;;;;;;5096025;28;20048;-79
2023/12/05 10:42:14;;;;;;;39.67;28.90;;;;;;;;;;5108331;28;20059;-80
2023/12/05 10:44:40;;;;;;;43.28;30.55;;;;;;;;;;5098064;28;20051;-80
2023/12/05 10:47:07;;;;;;;46.80;31.63;;;;;;;;;;5116276;28;20574;-80
2023/12/05 10:49:37;;;;;;;43.53;30.83;;;;;;;;;;5098299;28;20421;-80
2023/12/05 10:52:03;;;;;;;39.45;29.45;;;;;;;;;;5097975;28;20062;-80
2023/12/05 10:54:30;;;;;;;40.97;30.38;;;;;;;;;;5097701;28;20054;-80
2023/12/05 10:56:59;;;;;;;40.90;30.65;;;;;;;;;;5098434;28;20483;-80
2023/12/05 10:59:29;;;;;;;48.78;31.27;;;;;;;;;;5098072;28;20048;-79
2023/12/05 11:01:58;;;;;;;41.80;29.27;;;;;;;;;;5097821;28;20039;-78
2023/12/05 11:04:27;;;;;;;43.10;29.52;;;;;;;;;;5098485;28;20104;-78
2023/12/05 11:06:54;;;;;;;44.97;30.17;;;;;;;;;;5097924;28;20094;-78
2023/12/05 11:09:20;;;;;;;43.22;30.73;;;;;;;;;;5115583;28;20489;-78
2023/12/05 11:11:47;;;;;;;54.45;35.90;;;;;;;;;;5115476;28;20035;-78
2023/12/05 11:14:15;;;;;;;50.05;33.38;;;;;;;;;;5115677;28;20488;-78
2023/12/05 11:17:01;;;;;;;44.53;32.22;;;;;;;;;;5102819;28;20422;-78
2023/12/05 11:19:59;;;;;;;42.17;29.50;;;;;;;;;;5105413;28;20055;-78
2023/12/05 11:22:42;;;;;;;45.15;30.02;;;;;;;;;;5040375;28;20127;-78
2023/12/05 11:25:32;;;;;;;44.17;30.85;;;;;;;;;;5097141;28;20434;-77
2023/12/05 11:28:04;;;;;;;41.88;29.63;;;;;;;;;;5115124;28;20495;-77
2023/12/05 11:30:49;;;;;;;41.75;29.83;;;;;;;;;;5097416;28;20055;-77
2023/12/05 11:33:27;;;;;;;41.70;29.17;;;;;;;;;;5097303;28;20044;-78
2023/12/05 11:36:02;;;;;;;38.72;28.73;;;;;;;;;;5115309;28;20051;-77
2023/12/05 11:38:29;;;;;;;42.17;30.05;;;;;;;;;;5096820;28;20454;-77
2023/12/05 11:41:14;;;;;;;42.45;29.80;;;;;;;;;;5096567;28;20047;-77
2023/12/05 11:43:42;;;;;;;39.13;28.13;;;;;;;;;;5080533;28;20052;-78
2023/12/05 11:46:09;;;;;;;43.17;28.50;;;;;;;;;;5115016;28;20108;-78
2023/12/05 11:48:35;;;;;;;35.15;24.40;;;;;;;;;;5115277;28;20047;-78
2023/12/05 11:51:02;;;;;;;39.00;29.88;;;;;;;;;;5080081;28;20472;-78
2023/12/05 11:53:29;;;;;;;43.15;31.00;;;;;;;;;;5096314;28;20051;-78
2023/12/05 11:55:55;;;;;;;39.63;29.27;;;;;;;;;;5063316;28;20536;-78
2023/12/05 11:58:31;;;;;;;42.25;30.23;;;;;;;;;;5096857;28;20049;-78
2023/12/05 12:01:09;;;;;;;42.30;29.20;;;;;;;;;;5114552;28;20130;-78
2023/12/05 12:03:48;;;;;;;41.78;29.75;;;;;;;;;;5097291;28;20058;-77
2023/12/05 12:06:16;;;;;;;38.17;28.30;;;;;;;;;;5096222;28;20093;-78
2023/12/05 12:08:43;;;;;;;37.70;28.52;;;;;;;;;;5099736;28;20047;-78
2023/12/05 12:11:09;;;;;;;42.75;30.40;;;;;;;;;;5111578;28;20073;-78
2023/12/05 12:13:35;;;;;;;38.03;30.33;;;;;;;;;;5096564;28;20058;-79
2023/12/05 12:16:02;;;;;;;36.70;27.52;;;;;;;;;;5095582;28;20483;-79
2023/12/05 12:18:28;;;;;;;37.92;27.35;;;;;;;;;;5096232;28;20081;-78
2023/12/05 12:20:54;;;;;;;38.97;29.02;;;;;;;;;;5096030;28;20044;-79
2023/12/05 12:23:21;;;;;;;37.15;27.83;;;;;;;;;;5113285;27;20056;-78
2023/12/05 12:25:52;;;;;;;39.55;29.77;;;;;;;;;;5095940;28;20051;-79
2023/12/05 12:28:26;;;;;;;35.53;28.45;;;;;;;;;;5079568;28;20483;-79
2023/12/05 12:30:53;;;;;;;38.75;28.92;;;;;;;;;;5114572;28;20047;-79
2023/12/05 12:33:22;;;;;;;36.70;27.65;;;;;;;;;;5078413;28;20045;-78
2023/12/05 12:35:52;;;;;;;35.80;27.05;;;;;;;;;;5093583;28;20044;-79
2023/12/05 12:38:19;;;;;;;36.65;27.30;;;;;;;;;;5096052;28;20059;-79
2023/12/05 12:40:45;;;;;;;36.72;28.67;;;;;;;;;;5062317;28;20052;-78
2023/12/05 12:43:15;;;;;;;35.65;26.73;;;;;;;;;;5113746;28;20088;-79
2023/12/05 12:45:41;;;;;;;36.67;28.05;;;;;;;;;;5095892;28;20127;-79
2023/12/05 12:48:07;;;;;;;36.90;28.33;;;;;;;;;;5079323;28;20093;-79
2023/12/05 12:50:34;;;;;;;41.35;29.60;;;;;;;;;;5114151;28;20062;-79
2023/12/05 12:53:01;;;;;;;42.20;29.20;;;;;;;;;;5095682;28;20093;-78
2023/12/05 12:55:27;;;;;;;40.72;30.25;;;;;;;;;;5095708;28;20058;-78
2023/12/05 12:57:53;;;;;;;40.15;29.70;;;;;;;;;;5114449;28;20449;-79
2023/12/05 13:00:20;;;;;;;40.30;30.02;;;;;;;;;;5095950;28;20456;-79
2023/12/05 13:02:46;;;;;;;37.78;29.20;;;;;;;;;;5095955;28;20047;-79
2023/12/05 13:05:12;;;;;;;41.22;28.83;;;;;;;;;;5096737;28;20059;-79
2023/12/05 13:07:38;;;;;;;39.90;28.90;;;;;;;;;;5095913;28;20113;-79
2023/12/05 13:10:05;;;;;;;40.72;28.48;;;;;;;;;;5095926;28;20504;-79
2023/12/05 13:12:32;;;;;;;39.00;28.77;;;;;;;;;;5113898;28;20441;-79
2023/12/05 13:14:58;;;;;;;40.90;29.90;;;;;;;;;;5113830;28;20051;-79
2023/12/05 13:17:24;;;;;;;37.70;28.70;;;;;;;;;;5062561;28;20051;-79
2023/12/05 13:19:50;;;;;;;39.80;27.33;;;;;;;;;;5113976;28;20047;-79
2023/12/05 13:22:16;;;;;;;46.85;32.45;;;;;;;;;;5095381;28;20044;-78
2023/12/05 13:24:42;;;;;;;41.80;30.52;;;;;;;;;;5095448;28;20487;-79
2023/12/05 13:27:08;;;;;;;40.72;28.77;;;;;;;;;;5096450;28;20365;-79
2023/12/05 13:29:34;;;;;;;43.33;31.38;;;;;;;;;;5096503;28;20044;-78
2023/12/05 13:32:00;;;;;;;40.95;28.75;;;;;;;;;;5095468;28;20429;-79
2023/12/05 13:34:26;;;;;;;43.53;30.50;;;;;;;;;;5113754;28;20044;-78
2023/12/05 13:36:52;;;;;;;42.85;29.40;;;;;;;;;;5095774;28;20051;-78
2023/12/05 13:39:18;;;;;;;41.10;28.25;;;;;;;;;;5095872;28;20516;-79
2023/12/05 13:41:44;;;;;;;41.92;28.63;;;;;;;;;;5091917;28;20064;-78
2023/12/05 13:44:10;;;;;;;44.67;30.48;;;;;;;;;;5093419;28;20551;-78
2023/12/05 13:46:37;;;;;;;42.92;30.27;;;;;;;;;;5096044;28;20048;-78
2023/12/05 13:49:06;;;;;;;43.03;29.70;;;;;;;;;;5079215;28;20047;-78
2023/12/05 13:51:32;;;;;;;42.28;28.85;;;;;;;;;;5096864;28;20043;-78
2023/12/05 13:53:59;;;;;;;42.95;31.35;;;;;;;;;;5095692;28;20553;-78
2023/12/05 13:56:25;;;;;;;45.13;31.27;;;;;;;;;;5096830;28;20098;-78
2023/12/05 13:58:52;;;;;;;43.17;32.17;;;;;;;;;;5096746;28;20051;-78
2023/12/05 14:01:19;;;;;;;47.28;32.63;;;;;;;;;;5096617;28;20087;-78
2023/12/05 14:03:45;;;;;;;46.22;31.27;;;;;;;;;;5078822;28;20498;-78
2023/12/05 14:06:12;;;;;;;52.67;33.35;;;;;;;;;;5078719;28;20143;-78
2023/12/05 14:08:38;;;;;;;49.65;33.25;;;;;;;;;;5096000;28;20083;-78
2023/12/05 14:11:05;;;;;;;49.17;34.00;;;;;;;;;;5096550;28;20047;-78
2023/12/05 14:13:31;;;;;;;48.20;31.15;;;;;;;;;;5095446;28;20122;-78
2023/12/05 14:15:58;;;;;;;51.95;35.20;;;;;;;;;;5095689;28;20055;-78